createdAt,value
2024-03-29T00:00:52.961Z,51.36
2024-03-29T00:03:50.144Z,51.38
2024-03-29T00:06:47.630Z,51.30
2024-03-29T00:09:44.990Z,51.24
2024-03-29T00:12:42.679Z,51.19
2024-03-29T00:15:39.854Z,51.18
2024-03-29T00:18:37.326Z,51.15
2024-03-29T00:21:34.888Z,51.24
2024-03-29T00:24:32.254Z,51.29
2024-03-29T00:27:29.638Z,51.20
2024-03-29T00:30:27.017Z,51.23
2024-03-29T00:33:24.170Z,51.22
2024-03-29T00:36:21.825Z,51.24
2024-03-29T00:39:19.034Z,51.30
2024-03-29T00:42:16.711Z,51.30
2024-03-29T00:45:25.626Z,51.31
2024-03-29T00:48:30.043Z,51.34
2024-03-29T00:51:29.757Z,51.32
2024-03-29T00:54:27.481Z,51.38
2024-03-29T00:57:24.756Z,51.38
2024-03-29T01:00:23.515Z,51.24
2024-03-29T01:03:21.329Z,51.22
2024-03-29T01:06:18.822Z,51.22
2024-03-29T01:09:16.141Z,51.21
2024-03-29T01:12:13.628Z,51.18
2024-03-29T01:15:10.782Z,51.16
2024-03-29T01:18:08.247Z,51.11
2024-03-29T01:21:05.951Z,51.15
2024-03-29T01:24:03.593Z,51.21
2024-03-29T01:27:01.375Z,51.38
2024-03-29T01:29:58.531Z,51.56
2024-03-29T01:32:56.018Z,51.83
2024-03-29T01:35:53.194Z,52.15
2024-03-29T01:38:53.533Z,52.49
2024-03-29T01:41:51.008Z,52.81
2024-03-29T01:44:48.230Z,53.02
2024-03-29T01:47:45.715Z,53.15
2024-03-29T01:50:42.962Z,53.35
2024-03-29T01:53:40.542Z,53.49
2024-03-29T01:56:37.924Z,53.80
2024-03-29T01:59:35.349Z,54.00
2024-03-29T02:02:33.347Z,54.32
2024-03-29T02:05:30.896Z,54.64
2024-03-29T02:08:28.103Z,54.83
2024-03-29T02:11:25.798Z,55.07
2024-03-29T02:14:22.981Z,55.29
2024-03-29T02:17:20.618Z,55.55
2024-03-29T02:20:33.414Z,55.75
2024-03-29T02:23:35.615Z,56.00
2024-03-29T02:26:36.886Z,56.22
2024-03-29T02:29:34.213Z,56.51
2024-03-29T02:32:31.722Z,56.82
2024-03-29T02:35:29.275Z,57.02
2024-03-29T02:38:26.800Z,57.26
2024-03-29T02:41:23.985Z,57.51
2024-03-29T02:44:21.334Z,57.83
2024-03-29T02:47:18.521Z,58.07
2024-03-29T02:50:15.920Z,58.32
2024-03-29T02:53:13.627Z,58.53
2024-03-29T02:56:11.152Z,58.72
2024-03-29T02:59:08.365Z,58.92
2024-03-29T03:02:06.026Z,59.12
2024-03-29T03:05:03.206Z,59.34
2024-03-29T03:08:18.594Z,59.49
2024-03-29T03:11:15.807Z,59.71
2024-03-29T03:14:13.931Z,59.94
2024-03-29T03:17:11.149Z,60.18
2024-03-29T03:20:10.507Z,60.48
2024-03-29T03:23:07.756Z,60.78
2024-03-29T03:26:05.648Z,60.96
2024-03-29T03:29:03.146Z,61.17
2024-03-29T03:32:00.755Z,61.33
2024-03-29T03:34:57.928Z,61.48
2024-03-29T03:37:55.397Z,61.68
2024-03-29T03:40:52.572Z,61.88
2024-03-29T03:43:50.190Z,62.07
2024-03-29T03:46:47.362Z,62.28
2024-03-29T03:49:44.898Z,62.45
2024-03-29T03:52:42.284Z,62.58
2024-03-29T03:55:39.705Z,62.75
2024-03-29T03:58:37.000Z,62.79
2024-03-29T04:01:34.397Z,62.92
2024-03-29T04:04:31.714Z,63.06
2024-03-29T04:07:29.276Z,63.17
2024-03-29T04:10:26.441Z,63.25
2024-03-29T04:13:23.966Z,63.38
2024-03-29T04:16:21.118Z,63.47
2024-03-29T04:19:18.579Z,63.60
2024-03-29T04:22:15.751Z,63.77
2024-03-29T04:25:13.188Z,63.95
2024-03-29T04:28:10.383Z,64.10
2024-03-29T04:31:07.761Z,64.22
2024-03-29T04:34:04.919Z,64.37
2024-03-29T04:37:02.303Z,64.47
2024-03-29T04:39:59.484Z,64.59
2024-03-29T04:42:56.834Z,64.68
2024-03-29T04:45:54.004Z,64.79
2024-03-29T04:48:51.637Z,64.95
2024-03-29T04:51:49.033Z,65.05
2024-03-29T04:54:46.553Z,65.19
2024-03-29T04:57:43.740Z,65.32
2024-03-29T05:00:41.175Z,65.39
2024-03-29T05:03:38.329Z,65.47
2024-03-29T05:06:35.678Z,65.62
2024-03-29T05:09:32.869Z,65.71
2024-03-29T05:12:30.528Z,65.85
2024-03-29T05:15:28.051Z,65.97
2024-03-29T05:18:25.417Z,66.10
2024-03-29T05:21:22.967Z,66.26
2024-03-29T05:24:20.180Z,66.34
2024-03-29T05:27:17.790Z,66.47
2024-03-29T05:30:15.242Z,66.55
2024-03-29T05:33:12.742Z,66.66
2024-03-29T05:36:11.643Z,66.60
2024-03-29T05:39:09.192Z,66.60
2024-03-29T05:42:06.378Z,66.65
2024-03-29T05:45:04.220Z,66.78
2024-03-29T05:48:01.377Z,66.78
2024-03-29T05:50:58.912Z,66.68
2024-03-29T05:53:57.517Z,66.41
2024-03-29T05:56:55.875Z,66.02
2024-03-29T05:59:53.582Z,65.49
2024-03-29T06:02:51.323Z,65.04
2024-03-29T06:05:49.077Z,64.33
2024-03-29T06:08:46.367Z,63.55
2024-03-29T06:11:44.000Z,62.92
2024-03-29T06:14:59.105Z,62.30
2024-03-29T06:17:56.634Z,61.49
2024-03-29T06:20:53.795Z,60.83
2024-03-29T06:23:51.256Z,60.04
2024-03-29T06:26:48.670Z,59.35
2024-03-29T06:29:46.081Z,58.45
2024-03-29T06:32:43.253Z,57.43
2024-03-29T06:35:40.769Z,56.33
2024-03-29T06:38:38.071Z,55.03
2024-03-29T06:41:35.500Z,53.55
2024-03-29T06:44:32.701Z,51.94
2024-03-29T06:47:30.221Z,49.86
2024-03-29T06:50:27.419Z,48.49
2024-03-29T06:53:24.822Z,46.87
2024-03-29T06:56:21.991Z,44.53
2024-03-29T06:59:19.529Z,43.23
2024-03-29T07:02:17.144Z,42.53
2024-03-29T07:05:14.701Z,41.23
2024-03-29T07:08:11.949Z,40.69
2024-03-29T07:11:09.298Z,40.45
2024-03-29T07:14:06.561Z,40.14
2024-03-29T07:17:04.176Z,39.54
2024-03-29T07:20:01.357Z,38.72
2024-03-29T07:22:59.219Z,38.37
2024-03-29T07:25:56.387Z,38.22
2024-03-29T07:28:53.845Z,38.23
2024-03-29T07:31:51.006Z,38.27
2024-03-29T07:34:48.449Z,38.40
2024-03-29T07:37:48.880Z,38.17
2024-03-29T07:40:46.557Z,38.20
2024-03-29T07:43:43.712Z,37.84
2024-03-29T07:46:41.577Z,37.99
2024-03-29T07:49:38.813Z,37.53
2024-03-29T07:52:36.283Z,36.63
2024-03-29T07:55:33.476Z,36.53
2024-03-29T07:58:31.200Z,36.64
2024-03-29T08:01:40.952Z,36.33
2024-03-29T08:04:40.309Z,35.96
2024-03-29T08:07:37.500Z,35.92
2024-03-29T08:10:34.976Z,35.74
2024-03-29T08:13:32.145Z,35.38
2024-03-29T08:16:29.574Z,35.07
2024-03-29T08:19:26.935Z,34.55
2024-03-29T08:22:24.115Z,34.38
2024-03-29T08:25:21.659Z,34.24
2024-03-29T08:28:18.863Z,34.07
2024-03-29T08:31:16.361Z,33.85
2024-03-29T08:34:14.903Z,33.79
2024-03-29T08:37:13.230Z,33.03
2024-03-29T08:40:10.414Z,32.91
2024-03-29T08:43:07.893Z,32.68
2024-03-29T08:46:05.074Z,32.63
2024-03-29T08:49:02.578Z,32.14
2024-03-29T08:52:03.091Z,32.10
2024-03-29T08:55:00.652Z,32.08
2024-03-29T08:57:59.356Z,31.55
2024-03-29T09:00:57.515Z,31.11
2024-03-29T09:03:54.691Z,31.33
2024-03-29T09:06:52.148Z,30.87
2024-03-29T09:09:49.346Z,29.52
2024-03-29T09:12:46.698Z,28.72
2024-03-29T09:15:44.266Z,27.90
2024-03-29T09:18:41.765Z,27.03
2024-03-29T09:21:38.948Z,27.23
2024-03-29T09:24:36.541Z,26.85
2024-03-29T09:27:36.576Z,25.98
2024-03-29T09:30:34.096Z,25.71
2024-03-29T09:33:31.341Z,25.44
2024-03-29T09:36:28.780Z,24.48
2024-03-29T09:39:25.953Z,23.97
2024-03-29T09:42:23.593Z,23.50
2024-03-29T09:45:20.771Z,23.53
2024-03-29T09:48:18.266Z,22.85
2024-03-29T09:51:16.001Z,22.38
2024-03-29T09:54:14.050Z,22.67
2024-03-29T09:57:11.510Z,22.13
2024-03-29T10:00:09.383Z,22.04
2024-03-29T10:03:06.986Z,21.64
2024-03-29T10:06:04.571Z,21.79
2024-03-29T10:09:01.783Z,22.19
2024-03-29T10:11:59.246Z,21.76
2024-03-29T10:15:06.016Z,21.69
2024-03-29T10:18:04.062Z,22.02
2024-03-29T10:21:01.960Z,22.17
2024-03-29T10:23:59.301Z,21.75
2024-03-29T10:26:56.525Z,22.40
2024-03-29T10:29:54.008Z,22.44
2024-03-29T10:32:51.164Z,22.73
2024-03-29T10:35:50.115Z,22.69
2024-03-29T10:38:47.547Z,23.12
2024-03-29T10:41:45.015Z,23.34
2024-03-29T10:44:42.440Z,23.66
2024-03-29T10:47:39.604Z,24.23
2024-03-29T10:50:37.058Z,24.66
2024-03-29T10:53:34.510Z,25.48
2024-03-29T10:56:31.746Z,26.60
2024-03-29T10:59:29.190Z,27.67
2024-03-29T11:02:26.382Z,28.82
2024-03-29T11:05:23.844Z,29.66
2024-03-29T11:08:21.126Z,30.25
2024-03-29T11:11:18.566Z,30.89
2024-03-29T11:14:15.742Z,31.28
2024-03-29T11:17:16.068Z,31.30
2024-03-29T11:20:16.312Z,31.07
2024-03-29T11:23:13.828Z,30.39
2024-03-29T11:26:10.994Z,30.02
2024-03-29T11:29:08.379Z,29.97
2024-03-29T11:32:06.455Z,29.97
2024-03-29T11:35:04.503Z,29.92
2024-03-29T11:38:02.092Z,30.03
2024-03-29T11:40:59.281Z,29.86
2024-03-29T11:43:56.792Z,29.76
2024-03-29T11:46:54.368Z,29.42
2024-03-29T11:49:51.786Z,28.34
2024-03-29T11:52:48.986Z,27.73
2024-03-29T11:55:46.438Z,28.07
2024-03-29T11:58:43.974Z,28.67
2024-03-29T12:01:41.847Z,29.49
2024-03-29T12:04:39.192Z,30.09
2024-03-29T12:07:36.597Z,30.56
2024-03-29T12:10:34.132Z,30.85
2024-03-29T12:13:31.304Z,30.92
2024-03-29T12:16:28.848Z,30.02
2024-03-29T12:19:26.117Z,29.05
2024-03-29T12:22:23.673Z,28.14
2024-03-29T12:25:20.852Z,27.52
2024-03-29T12:28:18.196Z,27.11
2024-03-29T12:31:16.044Z,26.67
2024-03-29T12:34:13.558Z,26.32
2024-03-29T12:37:11.600Z,26.26
2024-03-29T12:40:13.766Z,26.65
2024-03-29T12:43:11.294Z,26.87
2024-03-29T12:46:08.495Z,26.81
2024-03-29T12:49:06.397Z,26.97
2024-03-29T12:52:03.564Z,27.00
2024-03-29T12:55:01.049Z,27.60
2024-03-29T12:57:58.241Z,27.75
2024-03-29T13:00:55.632Z,27.94
2024-03-29T13:03:53.086Z,28.47
2024-03-29T13:06:50.285Z,28.67
2024-03-29T13:09:47.840Z,28.96
2024-03-29T13:12:45.056Z,28.92
2024-03-29T13:15:43.824Z,29.17
2024-03-29T13:18:41.052Z,29.18
2024-03-29T13:21:38.524Z,29.02
2024-03-29T13:24:35.751Z,29.15
2024-03-29T13:27:34.749Z,29.00
2024-03-29T13:30:32.492Z,28.87
2024-03-29T13:33:30.249Z,28.51
2024-03-29T13:36:27.420Z,28.36
2024-03-29T13:39:26.004Z,28.21
2024-03-29T13:42:23.703Z,28.09
2024-03-29T13:45:21.465Z,27.49
2024-03-29T13:48:19.357Z,26.90
2024-03-29T13:51:16.790Z,26.69
2024-03-29T13:54:14.334Z,26.27
2024-03-29T13:57:12.929Z,26.11
2024-03-29T14:00:14.624Z,25.80
2024-03-29T14:03:11.829Z,25.93
2024-03-29T14:06:09.213Z,25.63
2024-03-29T14:09:06.537Z,25.66
2024-03-29T14:12:04.469Z,25.23
2024-03-29T14:15:01.987Z,25.15
2024-03-29T14:17:59.444Z,25.02
2024-03-29T14:20:58.260Z,24.68
2024-03-29T14:23:56.085Z,24.28
2024-03-29T14:26:53.485Z,24.41
2024-03-29T14:29:50.872Z,24.38
2024-03-29T14:32:57.924Z,24.08
2024-03-29T14:36:01.553Z,23.93
2024-03-29T14:38:58.722Z,23.79
2024-03-29T14:41:56.316Z,23.67
2024-03-29T14:44:53.479Z,23.84
2024-03-29T14:47:51.044Z,23.83
2024-03-29T14:50:48.237Z,23.93
2024-03-29T14:53:52.877Z,23.94
2024-03-29T14:56:50.256Z,23.84
2024-03-29T14:59:47.949Z,23.54
2024-03-29T15:02:46.327Z,23.18
2024-03-29T15:05:43.688Z,22.85
2024-03-29T15:08:40.875Z,23.23
2024-03-29T15:11:38.277Z,23.41
2024-03-29T15:14:36.180Z,23.63
2024-03-29T15:17:33.553Z,23.99
2024-03-29T15:20:31.082Z,24.33
2024-03-29T15:23:28.339Z,24.95
2024-03-29T15:26:26.411Z,25.46
2024-03-29T15:29:23.606Z,25.93
2024-03-29T15:32:21.616Z,26.38
2024-03-29T15:35:18.813Z,26.72
2024-03-29T15:38:21.165Z,27.11
2024-03-29T15:41:18.332Z,27.40
2024-03-29T15:44:17.442Z,27.73
2024-03-29T15:47:15.812Z,27.93
2024-03-29T15:50:13.652Z,27.93
2024-03-29T15:53:10.834Z,27.81
2024-03-29T15:56:08.684Z,27.88
2024-03-29T15:59:06.073Z,28.08
2024-03-29T16:02:03.237Z,28.34
2024-03-29T16:05:00.665Z,28.54
2024-03-29T16:07:58.080Z,28.75
2024-03-29T16:10:55.550Z,28.92
2024-03-29T16:13:52.955Z,29.04
2024-03-29T16:16:50.534Z,29.33
2024-03-29T16:19:47.743Z,29.65
2024-03-29T16:22:45.413Z,30.27
2024-03-29T16:25:44.730Z,31.27
2024-03-29T16:28:41.902Z,32.03
2024-03-29T16:31:39.240Z,32.61
2024-03-29T16:34:36.409Z,33.15
2024-03-29T16:37:33.899Z,33.55
2024-03-29T16:40:31.076Z,33.98
2024-03-29T16:43:28.571Z,34.31
2024-03-29T16:46:25.752Z,34.67
2024-03-29T16:49:23.190Z,35.05
2024-03-29T16:52:22.291Z,35.32
2024-03-29T16:55:19.729Z,35.58
2024-03-29T16:58:17.087Z,35.82
2024-03-29T17:01:14.868Z,35.96
2024-03-29T17:04:12.054Z,36.16
2024-03-29T17:07:09.967Z,36.35
2024-03-29T17:10:07.172Z,36.58
2024-03-29T17:13:05.214Z,36.78
2024-03-29T17:16:03.369Z,37.11
2024-03-29T17:19:00.869Z,37.31
2024-03-29T17:21:58.309Z,37.57
2024-03-29T17:24:55.789Z,37.85
2024-03-29T17:27:53.340Z,38.14
2024-03-29T17:30:50.518Z,38.44
2024-03-29T17:33:47.945Z,38.83
2024-03-29T17:36:45.121Z,39.30
2024-03-29T17:39:42.561Z,39.53
2024-03-29T17:42:39.750Z,39.77
2024-03-29T17:45:39.499Z,40.18
2024-03-29T17:48:37.515Z,40.63
2024-03-29T17:51:35.981Z,41.07
2024-03-29T17:54:33.155Z,41.39
2024-03-29T17:57:30.588Z,41.86
2024-03-29T18:00:27.813Z,42.18
2024-03-29T18:03:26.149Z,42.57
2024-03-29T18:06:23.349Z,42.92
2024-03-29T18:09:20.844Z,43.32
2024-03-29T18:12:17.994Z,43.71
2024-03-29T18:15:15.370Z,44.09
2024-03-29T18:18:12.536Z,44.43
2024-03-29T18:21:09.963Z,44.72
2024-03-29T18:24:07.116Z,45.05
2024-03-29T18:27:04.728Z,45.33
2024-03-29T18:30:01.945Z,45.55
2024-03-29T18:32:59.494Z,45.79
2024-03-29T18:35:59.565Z,46.09
2024-03-29T18:38:57.022Z,46.34
2024-03-29T18:41:54.736Z,46.57
2024-03-29T18:44:52.135Z,46.81
2024-03-29T18:47:49.313Z,47.07
2024-03-29T18:50:46.724Z,47.41
2024-03-29T18:53:45.483Z,47.83
2024-03-29T18:56:42.971Z,48.22
2024-03-29T18:59:40.518Z,48.52
2024-03-29T19:02:37.844Z,48.81
2024-03-29T19:05:35.475Z,49.04
2024-03-29T19:08:32.706Z,49.30
2024-03-29T19:11:30.308Z,49.60
2024-03-29T19:14:27.742Z,49.86
2024-03-29T19:17:25.326Z,50.18
2024-03-29T19:20:22.501Z,50.60
2024-03-29T19:23:20.586Z,50.88
2024-03-29T19:26:17.804Z,51.13
2024-03-29T19:29:15.224Z,51.34
2024-03-29T19:32:12.384Z,51.60
2024-03-29T19:35:09.847Z,51.82
2024-03-29T19:38:07.515Z,52.03
2024-03-29T19:41:04.705Z,52.16
2024-03-29T19:44:03.986Z,52.46
2024-03-29T19:47:01.363Z,52.67
2024-03-29T19:49:58.910Z,52.98
2024-03-29T19:52:56.088Z,53.23
2024-03-29T19:55:53.606Z,53.43
2024-03-29T19:58:51.059Z,53.53
2024-03-29T20:01:48.231Z,53.70
2024-03-29T20:04:45.688Z,53.88
2024-03-29T20:07:42.867Z,54.09
2024-03-29T20:10:41.122Z,54.30
2024-03-29T20:13:38.635Z,54.61
2024-03-29T20:16:35.877Z,54.82
2024-03-29T20:19:33.494Z,55.02
2024-03-29T20:22:30.871Z,55.17
2024-03-29T20:25:28.035Z,55.34
2024-03-29T20:28:26.630Z,55.51
2024-03-29T20:31:24.286Z,55.66
2024-03-29T20:34:22.095Z,55.75
2024-03-29T20:37:20.584Z,55.89
2024-03-29T20:40:18.101Z,56.08
2024-03-29T20:43:16.914Z,56.31
2024-03-29T20:46:14.361Z,56.49
2024-03-29T20:49:12.310Z,56.63
2024-03-29T20:52:10.259Z,56.83
2024-03-29T20:55:08.194Z,57.01
2024-03-29T20:58:07.175Z,57.13
2024-03-29T21:01:04.391Z,57.24
2024-03-29T21:04:19.662Z,57.35
2024-03-29T21:07:17.217Z,57.47
2024-03-29T21:10:14.422Z,57.63
2024-03-29T21:13:11.738Z,57.79
2024-03-29T21:16:09.347Z,57.95
2024-03-29T21:19:08.395Z,58.10
2024-03-29T21:22:06.197Z,58.25
2024-03-29T21:25:05.746Z,58.44
2024-03-29T21:28:04.586Z,58.58
2024-03-29T21:31:02.063Z,58.68
2024-03-29T21:33:59.263Z,58.82
2024-03-29T21:36:56.850Z,58.90
2024-03-29T21:39:54.038Z,59.03
2024-03-29T21:42:51.595Z,59.14
2024-03-29T21:45:48.776Z,59.22
2024-03-29T21:48:46.276Z,59.35
2024-03-29T21:51:43.747Z,59.41
2024-03-29T21:54:41.028Z,59.45
2024-03-29T21:57:38.393Z,59.62
2024-03-29T22:00:35.887Z,59.72
2024-03-29T22:03:33.276Z,59.79
2024-03-29T22:06:31.493Z,59.80
2024-03-29T22:09:29.142Z,59.81
2024-03-29T22:12:27.704Z,59.87
2024-03-29T22:15:25.158Z,60.01
2024-03-29T22:18:22.615Z,60.19
2024-03-29T22:21:20.241Z,60.20
2024-03-29T22:24:18.190Z,60.20
2024-03-29T22:27:15.751Z,60.22
2024-03-29T22:30:12.958Z,60.24
2024-03-29T22:33:10.414Z,60.36
2024-03-29T22:36:07.578Z,60.56
2024-03-29T22:39:05.149Z,60.67
2024-03-29T22:42:02.350Z,60.76
2024-03-29T22:44:59.767Z,60.91
2024-03-29T22:47:56.976Z,60.99
2024-03-29T22:50:54.482Z,61.00
2024-03-29T22:53:51.866Z,60.94
2024-03-29T22:56:49.418Z,60.96
2024-03-29T22:59:46.800Z,61.08
2024-03-29T23:02:44.071Z,61.24
2024-03-29T23:05:41.491Z,61.37
2024-03-29T23:08:38.708Z,61.40
2024-03-29T23:11:36.184Z,61.39
2024-03-29T23:14:34.048Z,61.38
2024-03-29T23:17:32.115Z,61.35
2024-03-29T23:20:29.274Z,61.42
2024-03-29T23:23:27.071Z,61.55
2024-03-29T23:26:24.525Z,61.58
2024-03-29T23:29:22.068Z,61.59
2024-03-29T23:32:19.639Z,61.59
2024-03-29T23:35:16.818Z,61.69
2024-03-29T23:38:14.353Z,61.74
2024-03-29T23:41:11.522Z,61.70
2024-03-29T23:44:08.861Z,61.75
2024-03-29T23:47:06.319Z,61.71
2024-03-29T23:50:05.038Z,61.78
2024-03-29T23:53:02.662Z,61.88
2024-03-29T23:55:59.821Z,61.89
2024-03-29T23:58:57.371Z,61.93
